Latest Weather Observations for Falls Creek

IDV60801

Issued at 8:32 am EST Friday 21 July 2017 (issued every 30 minutes, with the page automatically refreshed every 10 minutes)

About weather observations | Map of weather stations | Latest weather observations for VIC | Other Formats
Station Details ID: 083084 Name: FALLS CREEK Lat: -36.87 Lon: 147.28 Height: 1765.0 m
Data from the previous 72 hours. | See also: Recent months at Falls Creek
Date/Time
EST
Temp
°C
App
Temp
°C
Dew
Point
°C
Rel
Hum
%
Delta-T
°C
Wind Press
QNH
hPa
Press
MSL
hPa
Rain since
9am
mm
Dir  Spd
km/h
Gust
km/h
Spd
kts
Gust
kts
21/08:30am -4.7 -9.5 -5.7 93 0.1 SSE 11 15 6 8 1019.5 1022.4 0.8
21/08:00am -5.5 -11.1 -6.6 92 0.1 SSE 15 17 8 9 1018.9 1021.7 0.6
21/07:30am -4.8 -10.7 -5.8 93 0.1 SSE 17 22 9 12 1018.8 1021.6 0.6
21/07:00am -4.5 -10.8 -5.5 93 0.1 SSE 19 24 10 13 1018.3 1021.1 0.6
21/06:30am -4.3 -10.2 -5.3 93 0.2 SE 17 20 9 11 1018.1 1020.9 0.6
21/06:00am -4.4 -9.9 -5.4 93 0.1 SE 15 24 8 13 1017.9 1020.6 0.6
21/05:30am -4.3 -10.5 -5.3 93 0.2 SE 19 24 10 13 1017.5 1020.3 0.6
21/05:00am -4.5 -13.4 -5.5 93 0.1 SSE 33 43 18 23 1016.5 1019.3 0.6
21/04:30am -4.5 -12.5 -5.5 93 0.1 SSE 28 35 15 19 1016.5 1019.3 0.6
21/04:00am -4.4 -11.6 -5.4 93 0.1 SSE 24 33 13 18 1016.5 1019.3 0.6
21/03:30am -4.5 -12.9 -5.5 93 0.1 S 30 41 16 22 1016.4 1019.1 0.6
21/03:00am -4.6 -14.3 -5.6 93 0.1 S 37 52 20 28 1015.6 1018.3 0.6
21/02:30am -4.5 -14.6 -5.5 93 0.1 SSE 39 50 21 27 1015.2 1017.9 0.6
21/02:00am -4.4 -14.8 -5.4 93 0.1 S 41 50 22 27 1015.5 1018.1 0.6
21/01:30am -4.6 -15.4 -5.6 93 0.1 S 43 50 23 27 1015.8 1018.5 0.6
21/01:00am -4.6 -13.0 -5.6 93 0.1 S 30 41 16 22 1016.1 1018.8 0.6
21/12:38am -4.7 -13.5 -5.7 93 0.1 S 32 50 17 27 1016.2 1018.9 0.6
21/12:30am -4.8 -13.8 -5.8 93 0.1 S 33 50 18 27 1016.2 1018.9 0.6
21/12:29am -4.8 -13.6 -5.8 93 0.1 S 32 50 17 27 1016.1 1018.8 0.6
21/12:00am -4.9 -11.8 -5.9 93 0.1 SSE 22 33 12 18 1016.2 1018.9 0.6
 
Date/Time
EST
Temp
°C
App
Temp
°C
Dew
Point
°C
Rel
Hum
%
Delta-T
°C
Wind Press
QNH
hPa
Press
MSL
hPa
Rain since
9am
mm
Dir  Spd
km/h
Gust
km/h
Spd
kts
Gust
kts
20/11:30pm -5.2 -12.5 -6.2 93 0.1 SE 24 39 13 21 1015.8 1018.5 0.6
20/11:00pm -5.4 -12.3 -6.3 93 0.1 SE 22 41 12 22 1015.6 1018.3 0.6
20/10:30pm -5.6 -13.7 -6.5 93 0.1 SSE 28 44 15 24 1015.7 1018.4 0.6
20/10:18pm -5.6 -14.4 -6.5 93 0.1 SSE 32 50 17 27 1015.5 1018.1 0.6
20/10:00pm -5.8 -17.0 -6.9 92 0.1 S 44 59 24 32 1014.8 1017.4 0.6
20/09:55pm -5.8 -16.4 -6.9 92 0.1 S 41 59 22 32 1014.6 1017.3 0.6
20/09:30pm -5.6 -18.3 -6.7 92 0.1 S 52 67 28 36 1014.2 1016.8 0.6
20/09:21pm -5.6 -16.5 -6.7 92 0.1 S 43 61 23 33 1014.4 1017.0 0.6
20/09:00pm -5.6 -15.4 -6.7 92 0.1 S 37 54 20 29 1014.5 1017.2 0.6
20/08:32pm -5.6 -16.7 -6.8 91 0.2 S 44 63 24 34 1013.8 1016.4 0.6
20/08:30pm -5.6 -16.7 -6.8 91 0.2 S 44 59 24 32 1013.8 1016.4 0.6
20/08:19pm -5.6 -16.7 -6.8 91 0.2 S 44 63 24 34 1013.9 1016.5 0.6
20/08:00pm -5.6 -17.1 -6.8 91 0.2 S 46 63 25 34 1013.5 1016.0 0.6
20/07:30pm -5.5 -16.7 -6.9 90 0.2 S 44 65 24 35 1013.8 1016.4 0.6
20/07:09pm -5.4 -15.6 -6.6 91 0.2 SSW 39 61 21 33 1013.3 1015.9 0.6
20/07:00pm -5.4 -15.6 -6.6 91 0.2 SSW 39 50 21 27 1013.7 1016.3 0.6
20/06:30pm -5.4 -15.6 -6.6 91 0.2 SSW 39 52 21 28 1013.3 1015.9 0.6
20/06:05pm -5.5 -16.5 -6.9 90 0.2 SSW 43 63 23 34 1012.5 1015.0 0.4
20/06:00pm -5.6 -16.2 -6.8 91 0.2 SSW 41 54 22 29 1013.0 1015.5 0.4
20/05:30pm -5.1 -14.1 -6.1 93 0.1 SSW 33 44 18 24 1012.9 1015.4 0.4
20/05:00pm -4.6 -15.1 -5.6 93 0.1 SSW 41 48 22 26 1012.9 1015.4 0.4
20/04:30pm -4.3 -15.3 -5.3 93 0.2 SSW 44 56 24 30 1012.9 1015.4 0.0
20/04:00pm -4.2 -13.9 -5.6 90 0.3 SW 37 48 20 26 1012.4 1014.9 0.0
20/03:30pm -4.1 -15.5 -5.3 91 0.2 SW 46 61 25 33 1012.0 1014.5 0.0
20/03:15pm -3.9 -16.0 -5.1 91 0.2 SW 50 65 27 35 1011.9 1014.4 0.0
20/03:01pm -3.1 -10.9 -4.1 93 0.2 SW 28 46 15 25 1011.8 1014.3 0.0
20/03:00pm -3.1 -10.5 -3.9 94 0.1 SW 26 46 14 25 1011.9 1014.4 0.0
20/02:53pm -2.9 -9.5 -3.7 94 0.2 SW 22 30 12 16 1011.8 1014.3 0.0
20/02:30pm -2.9 -12.4 -4.0 92 0.3 WSW 37 50 20 27 1011.3 1013.8 0.0
20/02:14pm -2.8 -11.0 -3.8 93 0.2 WSW 30 48 16 26 1011.2 1013.7 0.0
20/02:00pm -2.7 -9.3 -3.4 95 0.1 W 22 32 12 17 1011.2 1013.7 0.0
20/01:30pm -2.7 -8.4 -3.4 95 0.1 WNW 17 24 9 13 1011.0 1013.4 0.0
20/01:00pm -2.8 -11.0 -3.6 94 0.2 W 30 44 16 24 1011.1 1013.6 0.0
20/12:30pm -2.9 -11.1 -3.7 94 0.2 WSW 30 43 16 23 1011.1 1013.6 0.0
20/12:05pm -3.1 -10.9 -3.9 94 0.1 WSW 28 50 15 27 1011.3 1013.8 0.0
20/12:00pm -3.0 -10.4 -3.8 94 0.1 WSW 26 37 14 20 1011.3 1013.8 0.0
20/11:30am -3.1 -9.8 -3.9 94 0.1 W 22 33 12 18 1011.3 1013.8 0.0
20/11:00am -3.2 -9.9 -4.0 94 0.1 W 22 41 12 22 1011.5 1014.0 0.0
20/10:30am -3.4 -9.2 -4.2 94 0.1 W 17 30 9 16 1011.7 1014.2 0.0
20/10:00am -3.5 -9.3 -4.3 94 0.1 W 17 33 9 18 1011.4 1013.9 0.0
20/09:30am -3.7 -9.9 -4.5 94 0.1 W 19 33 10 18 1011.2 1013.7 0.0
20/09:00am -3.8 -9.6 -4.6 94 0.1 W 17 24 9 13 1011.1 1013.6 0.0
20/08:30am -3.8 -10.9 -4.6 94 0.1 W 24 39 13 21 1011.1 1013.6 0.0
20/08:00am -3.8 -10.2 -4.6 94 0.1 W 20 35 11 19 1011.0 1013.4 0.0
20/07:30am -3.8 -12.4 -4.6 94 0.1 WSW 32 43 17 23 1010.6 1013.1 0.0
20/07:00am -4.0 -14.4 -5.0 93 0.2 WSW 41 54 22 29 1010.1 1012.6 0.0
20/06:32am -4.4 -14.8 -5.4 93 0.1 SW 41 61 22 33 1010.0 1012.4 0.0
20/06:30am -4.4 -14.5 -5.4 93 0.1 WSW 39 52 21 28 1010.0 1012.4 0.0
20/06:00am -4.8 -14.5 -5.8 93 0.1 WSW 37 52 20 28 1010.0 1012.4 0.0
20/05:55am -4.8 -14.1 -5.8 93 0.1 WSW 35 52 19 28 1009.9 1012.3 0.0
20/05:30am -5.2 -11.7 -6.3 92 0.1 WSW 20 32 11 17 1010.4 1012.8 0.0
20/05:00am -5.0 -13.8 -6.0 93 0.1 WSW 32 41 17 22 1010.5 1012.9 0.0
20/04:30am -5.1 -12.8 -6.1 93 0.1 W 26 39 14 21 1010.4 1012.8 0.0
20/04:00am -5.0 -9.8 -6.0 93 0.1 WNW 11 22 6 12 1010.5 1012.9 0.0
20/03:30am -5.1 -12.0 -6.1 93 0.1 W 22 32 12 17 1010.5 1012.9 0.0
20/03:00am -5.1 -13.1 -6.1 93 0.1 W 28 37 15 20 1010.6 1013.1 0.0
20/02:30am -5.1 -12.4 -6.1 93 0.1 WNW 24 32 13 17 1011.0 1013.4 0.0
20/02:00am -4.5 -10.9 -5.3 94 0.1 W 20 26 11 14 1011.0 1013.4 0.0
20/01:57am -4.5 -10.9 -5.3 94 0.1 W 20 32 11 17 1011.0 1013.4 0.0
20/01:30am -4.6 -14.8 -6.6 86 0.5 WSW 39 54 21 29 1010.5 1012.9 0.0
20/01:16am -4.9 -12.2 -6.6 88 0.3 W 24 48 13 26 1010.8 1013.3 0.0
20/01:00am -5.1 -11.1 -6.3 91 0.2 WNW 17 28 9 15 1011.5 1014.0 0.0
20/12:30am -4.6 -10.1 -5.8 91 0.2 WSW 15 17 8 9 1012.3 1014.8 0.0
20/12:00am -4.9 -13.7 -6.3 90 0.3 SW 32 37 17 20 1012.0 1014.5 0.0
 
Date/Time
EST
Temp
°C
App
Temp
°C
Dew
Point
°C
Rel
Hum
%
Delta-T
°C
Wind Press
QNH
hPa
Press
MSL
hPa
Rain since
9am
mm
Dir  Spd
km/h
Gust
km/h
Spd
kts
Gust
kts
19/11:30pm -4.7 -11.2 -5.8 92 0.2 SSW 20 24 11 13 1011.9 1014.4 0.0
19/11:00pm -4.7 -10.2 -5.8 92 0.2 SSW 15 19 8 10 1012.5 1015.0 0.0
19/10:30pm -3.6 -9.9 -4.4 94 0.1 SSW 20 26 11 14 1012.6 1015.2 0.0
19/10:00pm -3.1 -8.0 -3.8 95 0.1 SSW 13 17 7 9 1012.6 1015.2 0.0
19/09:30pm -2.8 -8.5 -3.5 95 0.1 SSW 17 24 9 13 1012.5 1015.0 0.0
19/09:00pm -2.3 -8.5 -3.0 95 0.1 SSW 20 30 11 16 1012.5 1015.0 0.0
19/08:30pm -2.2 -8.8 -2.9 95 0.2 SW 22 30 12 16 1012.6 1015.2 0.0
19/08:00pm -1.2 -6.3 -1.6 97 0.1 SW 15 24 8 13 1012.4 1014.9 0.0
19/07:30pm -1.1 -7.1 -1.5 97 0.1 SSW 20 24 11 13 1011.9 1014.4 0.0
19/07:00pm -1.1 -8.2 -1.5 97 0.1 SSW 26 32 14 17 1012.0 1014.5 0.0
19/06:30pm -1.1 -9.0 -1.7 96 0.2 SSW 30 35 16 19 1011.5 1014.0 0.0
19/06:00pm -1.1 -10.3 -1.5 97 0.1 SSW 37 46 20 25 1011.4 1013.9 0.0
19/05:30pm -1.0 -9.3 -1.4 97 0.1 SSW 32 44 17 24 1011.3 1013.8 0.0
19/05:00pm -0.9 -9.3 -1.3 97 0.1 SSW 33 48 18 26 1010.7 1013.2 0.0
19/04:30pm -0.5 -11.3 -0.8 98 0.1 SSW 46 57 25 31 1010.7 1013.2 0.0
19/04:17pm -0.4 -9.5 -0.7 98 0.1 SSW 37 59 20 32 1010.5 1012.9 0.0
19/04:00pm -0.5 -11.0 -0.8 98 0.1 SSW 44 57 24 31 1010.1 1012.6 0.0
19/03:50pm -0.3 -8.6 -0.6 98 0.1 SW 33 56 18 30 1010.2 1012.7 0.0
19/03:30pm -0.2 -8.9 -0.5 98 0.1 SW 35 44 19 24 1009.6 1012.1 0.0
19/03:08pm -0.1 -9.2 -0.4 98 0.1 SSW 37 56 20 30 1009.4 1011.8 0.0
19/03:00pm -0.1 -9.9 -0.4 98 0.1 SSW 41 56 22 30 1009.3 1011.7 0.0
19/02:30pm -0.2 -11.4 -0.5 98 0.1 SSW 48 57 26 31 1008.7 1011.1 0.0
19/02:05pm -0.1 -8.4 -0.4 98 0.1 SW 33 52 18 28 1008.3 1010.7 0.0
19/02:00pm -0.1 -7.5 -0.4 98 0.1 SW 28 39 15 21 1008.5 1010.8 0.0
19/01:30pm -0.1 -9.9 -0.4 98 0.1 SW 41 52 22 28 1008.2 1010.6 0.0
19/01:00pm -0.3 -9.8 -0.6 98 0.1 SSW 39 50 21 27 1007.7 1010.1 0.0
19/12:30pm -0.4 -10.3 -0.8 97 0.1 SSW 41 50 22 27 1007.9 1010.2 0.0
19/12:00pm -0.5 -9.3 -0.9 97 0.1 SSW 35 50 19 27 1008.2 1010.6 0.0
19/11:30am -0.7 -10.2 -1.1 97 0.1 SSW 39 48 21 26 1008.2 1010.6 0.0
19/11:00am -1.1 -8.6 -1.5 97 0.1 SW 28 39 15 21 1008.2 1010.6 0.0
19/10:46am -1.3 -7.7 -1.9 96 0.2 SW 22 39 12 21 1008.1 1010.4 0.0
19/10:30am -1.4 -6.1 -2.0 96 0.2 WSW 13 19 7 10 1007.7 1010.1 0.0
19/10:00am -1.5 -5.5 -2.1 96 0.2 W 9 19 5 10 1007.5 1009.8 0.0
19/09:30am -1.8 -6.6 -2.4 96 0.1 W 13 20 7 11 1006.9 1009.2 0.0
19/09:00am -1.7 -8.9 -2.3 96 0.1 SW 26 35 14 19 1006.4 1008.7 9.2
19/08:30am -1.9 -9.5 -2.5 96 0.1 SW 28 39 15 21 1006.1 1008.3 9.2
19/08:00am -2.2 -8.7 -2.7 96 0.1 WSW 22 30 12 16 1005.7 1008.0 9.2
19/07:30am -2.1 -9.4 -2.6 96 0.1 WSW 26 39 14 21 1005.5 1007.7 9.2
19/07:00am -2.3 -9.2 -2.8 96 0.1 WSW 24 35 13 19 1004.8 1007.0 9.2
19/06:30am -2.5 -9.1 -3.2 95 0.1 WSW 22 32 12 17 1004.6 1006.8 9.2
19/06:00am -2.7 -6.8 -3.4 95 0.1 WNW 9 17 5 9 1004.4 1006.6 9.2
19/05:30am -2.7 -7.6 -3.4 95 0.1 NW 13 20 7 11 1004.1 1006.2 9.2
19/05:00am -2.8 -9.0 -3.5 95 0.1 WNW 20 32 11 17 1003.8 1006.0 9.2
19/04:30am -2.7 -9.3 -3.4 95 0.1 WNW 22 30 12 16 1003.8 1006.0 9.2
19/04:00am -2.6 -9.6 -3.3 95 0.1 WNW 24 35 13 19 1003.7 1005.8 9.2
19/03:30am -2.5 -9.5 -3.2 95 0.1 NW 24 30 13 16 1003.7 1005.8 9.2
19/03:00am -2.6 -8.6 -3.3 95 0.1 NW 19 28 10 15 1003.8 1006.0 9.2
19/02:30am -2.5 -8.5 -3.2 95 0.1 NW 19 33 10 18 1003.6 1005.7 9.2
19/02:00am -2.6 -8.8 -3.3 95 0.1 NW 20 35 11 19 1003.5 1005.6 9.2
19/01:30am -2.8 -10.2 -3.5 95 0.1 NNW 26 35 14 19 1003.5 1005.6 9.0
19/01:00am -2.7 -10.5 -3.4 95 0.1 NW 28 37 15 20 1003.5 1005.6 9.0
19/12:30am -2.7 -10.5 -3.4 95 0.1 NNW 28 35 15 19 1003.7 1005.8 9.0
19/12:00am -2.7 -10.5 -3.4 95 0.1 NNW 28 37 15 20 1003.8 1006.0 9.0
 
Date/Time
EST
Temp
°C
App
Temp
°C
Dew
Point
°C
Rel
Hum
%
Delta-T
°C
Wind Press
QNH
hPa
Press
MSL
hPa
Rain since
9am
mm
Dir  Spd
km/h
Gust
km/h
Spd
kts
Gust
kts
18/11:30pm -2.1 -9.8 -2.6 96 0.1 NNW 28 37 15 20 1003.8 1006.0 9.0
18/11:00pm -2.0 -9.7 -2.6 96 0.1 NW 28 41 15 22 1003.9 1006.1 9.0
18/10:30pm -2.0 -9.3 -2.6 96 0.1 NW 26 37 14 20 1004.6 1006.8 8.8
18/10:00pm -2.1 -9.0 -2.6 96 0.1 NNW 24 43 13 23 1005.0 1007.2 8.8
18/09:39pm -2.2 -10.2 -2.7 96 0.1 NW 30 48 16 26 1004.9 1007.1 8.8
18/09:30pm -2.2 -10.6 -2.7 96 0.1 NNW 32 43 17 23 1004.9 1007.1 8.6
18/09:00pm -2.0 -8.5 -2.6 96 0.1 NNW 22 30 12 16 1005.1 1007.3 8.2
18/08:30pm -1.5 -9.1 -1.9 97 0.1 NNW 28 44 15 24 1005.1 1007.3 7.2
18/08:00pm -1.8 -9.0 -2.4 96 0.1 NNW 26 35 14 19 1005.4 1007.6 7.0
18/07:30pm -1.4 -9.0 -1.8 97 0.1 NW 28 43 15 23 1005.4 1007.6 7.0
18/07:05pm -1.5 -10.0 -1.9 97 0.1 NNW 33 54 18 29 1004.8 1007.0 7.0
18/07:00pm -1.5 -10.0 -1.9 97 0.1 NNW 33 46 18 25 1004.8 1007.0 7.0
18/06:30pm -1.7 -10.1 -2.3 96 0.1 NNW 32 41 17 22 1004.9 1007.1 6.6
18/06:00pm -1.6 -9.2 -2.0 97 0.1 NNW 28 39 15 21 1004.9 1007.1 6.2
18/05:30pm -1.8 -10.2 -2.4 96 0.1 NNW 32 44 17 24 1004.6 1006.8 6.0
18/05:09pm -1.8 -9.4 -2.4 96 0.1 NW 28 46 15 25 1004.5 1006.7 6.0
18/05:00pm -2.0 -10.4 -2.6 96 0.1 NW 32 44 17 24 1004.6 1006.8 6.0
18/04:30pm -1.9 -10.9 -2.5 96 0.1 NNW 35 48 19 26 1004.4 1006.6 5.6
18/04:00pm -1.6 -11.3 -2.0 97 0.1 NNW 39 54 21 29 1004.2 1006.3 5.2
18/03:30pm -1.8 -11.9 -2.4 96 0.1 NNW 41 65 22 35 1004.3 1006.5 4.6
18/03:12pm -1.8 -11.5 -2.4 96 0.1 NNW 39 61 21 33 1003.9 1006.1 4.2
18/03:00pm -1.6 -11.3 -2.0 97 0.1 NNW 39 56 21 30 1004.1 1006.2 4.0
18/02:51pm -1.6 -10.5 -2.0 97 0.1 NNW 35 56 19 30 1004.2 1006.3 3.8
18/02:30pm -1.6 -10.9 -2.2 96 0.1 NNW 37 52 20 28 1004.3 1006.5 3.4
18/02:03pm -1.5 -9.8 -1.9 97 0.1 NNW 32 56 17 30 1004.3 1006.5 3.0
18/02:00pm -1.5 -9.8 -1.9 97 0.1 NNW 32 48 17 26 1004.5 1006.7 2.8
18/01:30pm -1.4 -10.3 -1.8 97 0.1 NNW 35 56 19 30 1004.5 1006.7 2.4
18/01:03pm -1.7 -11.8 -2.3 96 0.1 NNW 41 59 22 32 1005.0 1007.2 2.0
18/01:00pm -1.6 -12.1 -2.2 96 0.1 NNW 43 59 23 32 1004.6 1006.8 2.0
18/12:32pm -1.6 -10.1 -2.0 97 0.1 NW 33 52 18 28 1005.6 1007.8 1.8
18/12:30pm -1.5 -10.4 -2.1 96 0.2 NNW 35 52 19 28 1005.5 1007.7 1.8
18/12:00pm -1.7 -11.4 -2.3 96 0.1 NW 39 67 21 36 1005.4 1007.6 1.8
18/11:30am -1.4 -12.0 -1.8 97 0.1 NW 44 69 24 37 1006.2 1008.5 1.8
18/11:00am -1.5 -11.2 -1.9 97 0.1 NW 39 65 21 35 1006.6 1008.8 1.8
18/10:30am -1.2 -11.2 -1.6 97 0.1 NW 41 74 22 40 1006.6 1008.8 1.4
18/10:10am -1.3 -12.6 -1.7 97 0.1 NW 48 87 26 47 1006.0 1008.2 1.4
18/10:00am -1.3 -12.6 -1.7 97 0.1 NNW 48 69 26 37 1006.4 1008.7 1.4
18/09:30am -1.5 -12.1 -1.9 97 0.1 NNW 44 74 24 40 1006.8 1009.1 1.2
18/09:00am -0.7 -11.6 -1.0 98 0.1 NNW 46 65 25 35 1006.3 1008.6 8.6

Other Formats:

Comma delimited format used in spreadsheet applications
http://www.bom.gov.au/fwo/IDV60801/IDV60801.94903.axf

JavaScript Object Notation format (JSON) in row-major order
http://www.bom.gov.au/fwo/IDV60801/IDV60801.94903.json